Sovereign — 9HUE9 — position and weather

sailwx.info

Track history (hours):
 
Tides and Currents Weather Stations Pressure Air Temp Water Temp Dewpoint Dewpoint Depression Visibility Wind Speed Wind Dir Waves Ship Positions

Sovereign

Last reported at 2016-Apr-30 05:33 UTC. Time now 2016-May-03 04:52 UTC.
Position N 41°17' E 002°11'.

Length 268 m; draft 7.8 m.

Type: Passenger vessel. MMSI: 249539000.

Date/timePositionNaut miles runAvg speedWind from/ knotsBaromVisibWave heightAir tempDewpointWater temp
2016-Apr-30 05:33N 41°17' E 002°11'1110.8
2016-Apr-30 04:33N 41°16' E 002°26'16916.5
2016-Apr-29 18:19N 42°49' E 005°36'2212.3
2016-Apr-29 16:33N 43°06' E 005°55'1 1.2
2016-Apr-29 15:31N 43°07' E 005°56'0 0.0
2016-Apr-29 14:31N 43°07' E 005°56'0 0.0
2016-Apr-29 13:31N 43°07' E 005°56'0 0.0
2016-Apr-29 12:31N 43°07' E 005°56'0 0.0
2016-Apr-29 11:31N 43°07' E 005°56'0 0.0
2016-Apr-29 10:31N 43°07' E 005°56'0 0.0
2016-Apr-29 09:31N 43°07' E 005°56'0 0.0
2016-Apr-29 08:31N 43°07' E 005°56'0 0.0
2016-Apr-29 07:31N 43°07' E 005°56'0 0.2
2016-Apr-29 06:33N 43°07' E 005°56'4611.1
2016-Apr-29 02:25N 43°01' E 006°58'1416.6
2016-Apr-29 01:33N 43°04' E 007°17'1916.9
2016-Apr-29 00:27N 43°09' E 007°42'1617.3
2016-Apr-28 23:33N 43°12' E 008°03'1717.2
2016-Apr-28 22:33N 43°16' E 008°25'1716.8
2016-Apr-28 21:33N 43°20' E 008°48'1716.8
2016-Apr-28 20:33N 43°24' E 009°10'1717.0
2016-Apr-28 19:33N 43°28' E 009°33'1716.9
2016-Apr-28 18:33N 43°31' E 009°56'1515.1
2016-Apr-28 17:33N 43°32' E 010°17'1 1.1
2016-Apr-28 16:31N 43°33' E 010°18'0 0.0
2016-Apr-28 15:31N 43°33' E 010°18'0 0.0
2016-Apr-28 14:22N 43°33' E 010°18'0 0.0
2016-Apr-28 13:28N 43°33' E 010°18'0 0.0
2016-Apr-28 12:31N 43°33' E 010°18'0 0.0
2016-Apr-28 11:31N 43°33' E 010°18'0 0.0
2016-Apr-28 10:31N 43°33' E 010°18'0 0.0
2016-Apr-28 09:31N 43°33' E 010°18'0 0.0
2016-Apr-28 08:31N 43°33' E 010°18'0 0.0
2016-Apr-28 07:31N 43°33' E 010°18'0 0.0
2016-Apr-28 06:31N 43°33' E 010°18'0 0.0
2016-Apr-28 05:32N 43°33' E 010°18'4 4.0
2016-Apr-28 04:34N 43°30' E 010°14'1212.4
2016-Apr-28 03:33N 43°18' E 010°09'1413.6
2016-Apr-28 02:33N 43°05' E 010°11'1614.4
2016-Apr-28 01:26N 42°51' E 010°00'183 6.5
2016-Apr-26 21:08N 40°59' E 013°15'916.4
2016-Apr-26 20:33N 40°54' E 013°26'1716.6
2016-Apr-26 19:34N 40°42' E 013°41'1615.6
2016-Apr-26 18:33N 40°38' E 014°01'1615.7
2016-Apr-26 17:33N 40°48' E 014°16'2 0.2
2016-Apr-26 06:33N 40°50' E 014°16'6 6.6
2016-Apr-26 05:34N 40°45' E 014°11'1514.8
2016-Apr-26 04:33N 40°35' E 013°56'1514.8
2016-Apr-26 03:33N 40°30' E 013°38'1716.0
2016-Apr-26 02:30N 40°32' E 013°16'  
2016-Apr-23 22:29N 41°16' E 003°29'1010.9
2016-Apr-23 21:33N 41°16' E 003°16'1110.6
2016-Apr-23 20:33N 41°16' E 003°02'1010.3
2016-Apr-23 19:33N 41°16' E 002°48'1110.4
2016-Apr-23 18:32N 41°16' E 002°34'18 8.8
2016-Apr-23 16:29N 41°19' E 002°10'3 2.7
2016-Apr-23 15:31N 41°22' E 002°11'0 0.0
2016-Apr-23 14:19N 41°22' E 002°11'0 0.0
2016-Apr-23 13:31N 41°22' E 002°11'0 0.0
2016-Apr-23 12:31N 41°22' E 002°11'0 0.0
2016-Apr-23 10:28N 41°22' E 002°11'0 0.0
2016-Apr-23 07:31N 41°22' E 002°11'0 0.0
2016-Apr-23 06:33N 41°22' E 002°11'3 3.2
2016-Apr-23 05:33N 41°18' E 002°10'1111.0
2016-Apr-23 04:33N 41°21' E 002°25'18916.5
2016-Apr-22 17:07N 43°04' E 005°59'4 7.9
2016-Apr-22 16:33N 43°06' E 005°54'0 0.0
2016-Apr-22 15:31N 43°06' E 005°54'0 0.0
2016-Apr-22 14:31N 43°06' E 005°54'0 0.0
2016-Apr-22 13:31N 43°06' E 005°54'0 0.0
2016-Apr-22 12:31N 43°06' E 005°54'0 0.0
2016-Apr-22 11:31N 43°06' E 005°54'0 0.0
2016-Apr-22 10:31N 43°06' E 005°54'0 0.0
2016-Apr-22 09:31N 43°06' E 005°54'0 0.0
2016-Apr-22 08:31N 43°06' E 005°54'0 0.0
2016-Apr-22 07:31N 43°06' E 005°54'3 2.9
2016-Apr-22 06:32N 43°05' E 005°57'9315.0
2016-Apr-22 00:21N 43°13' E 008°04'1316.9
2016-Apr-21 23:33N 43°16' E 008°22'1514.8
2016-Apr-21 22:34N 43°19' E 008°42'1514.5
2016-Apr-21 21:33N 43°23' E 009°01'1514.8
2016-Apr-21 20:33N 43°26' E 009°21'1515.2
2016-Apr-21 19:33N 43°30' E 009°41'1514.8
2016-Apr-21 18:33N 43°31' E 010°02'1212.1
2016-Apr-21 17:33N 43°34' E 010°18'1 0.8
2016-Apr-21 16:31N 43°34' E 010°18'0 0.0
2016-Apr-21 15:31N 43°34' E 010°18'0 0.0
2016-Apr-21 14:31N 43°34' E 010°18'0 0.0
2016-Apr-21 13:31N 43°34' E 010°18'0 0.0
2016-Apr-21 12:31N 43°34' E 010°18'0 0.0
2016-Apr-21 11:31N 43°34' E 010°18'0 0.0
2016-Apr-21 10:31N 43°34' E 010°18'0 0.0
2016-Apr-21 09:28N 43°34' E 010°18'0 0.0
2016-Apr-21 08:31N 43°34' E 010°18'0 0.0
2016-Apr-21 07:31N 43°34' E 010°18'0 0.0
2016-Apr-21 06:31N 43°34' E 010°18'0 0.5
2016-Apr-21 05:33N 43°34' E 010°18'7 7.2
2016-Apr-21 04:34N 43°28' E 010°12'1212.0
2016-Apr-21 03:34N 43°17' E 010°08'8 8.4
2016-Apr-21 02:34N 43°09' E 010°13'1514.5
2016-Apr-21 01:33N 42°56' E 010°05'  
Track history (hours):
 
Tides and Currents Weather Stations Pressure Air Temp Water Temp Dewpoint Dewpoint Depression Visibility Wind Speed Wind Dir Waves Ship Positions

Sovereign

Last reported at 2016-Apr-30 05:33 UTC. Time now 2016-May-03 04:52 UTC.
Position N 41°17' E 002°11'.

Length 268 m; draft 7.8 m.

Type: Passenger vessel. MMSI: 249539000.

Date/timePositionNaut miles runAvg speedWind from/ knotsBaromVisibWave heightAir tempDewpointWater temp
2016-Apr-30 05:33N 41°17' E 002°11'1110.8
2016-Apr-30 04:33N 41°16' E 002°26'16916.5
2016-Apr-29 18:19N 42°49' E 005°36'2212.3
2016-Apr-29 16:33N 43°06' E 005°55'1 1.2
2016-Apr-29 15:31N 43°07' E 005°56'0 0.0
2016-Apr-29 14:31N 43°07' E 005°56'0 0.0
2016-Apr-29 13:31N 43°07' E 005°56'0 0.0
2016-Apr-29 12:31N 43°07' E 005°56'0 0.0
2016-Apr-29 11:31N 43°07' E 005°56'0 0.0
2016-Apr-29 10:31N 43°07' E 005°56'0 0.0
2016-Apr-29 09:31N 43°07' E 005°56'0 0.0
2016-Apr-29 08:31N 43°07' E 005°56'0 0.0
2016-Apr-29 07:31N 43°07' E 005°56'0 0.2
2016-Apr-29 06:33N 43°07' E 005°56'4611.1
2016-Apr-29 02:25N 43°01' E 006°58'1416.6
2016-Apr-29 01:33N 43°04' E 007°17'1916.9
2016-Apr-29 00:27N 43°09' E 007°42'1617.3
2016-Apr-28 23:33N 43°12' E 008°03'1717.2
2016-Apr-28 22:33N 43°16' E 008°25'1716.8
2016-Apr-28 21:33N 43°20' E 008°48'1716.8
2016-Apr-28 20:33N 43°24' E 009°10'1717.0
2016-Apr-28 19:33N 43°28' E 009°33'1716.9
2016-Apr-28 18:33N 43°31' E 009°56'1515.1
2016-Apr-28 17:33N 43°32' E 010°17'1 1.1
2016-Apr-28 16:31N 43°33' E 010°18'0 0.0
2016-Apr-28 15:31N 43°33' E 010°18'0 0.0
2016-Apr-28 14:22N 43°33' E 010°18'0 0.0
2016-Apr-28 13:28N 43°33' E 010°18'0 0.0
2016-Apr-28 12:31N 43°33' E 010°18'0 0.0
2016-Apr-28 11:31N 43°33' E 010°18'0 0.0
2016-Apr-28 10:31N 43°33' E 010°18'0 0.0
2016-Apr-28 09:31N 43°33' E 010°18'0 0.0
2016-Apr-28 08:31N 43°33' E 010°18'0 0.0
2016-Apr-28 07:31N 43°33' E 010°18'0 0.0
2016-Apr-28 06:31N 43°33' E 010°18'0 0.0
2016-Apr-28 05:32N 43°33' E 010°18'4 4.0
2016-Apr-28 04:34N 43°30' E 010°14'1212.4
2016-Apr-28 03:33N 43°18' E 010°09'1413.6
2016-Apr-28 02:33N 43°05' E 010°11'1614.4
2016-Apr-28 01:26N 42°51' E 010°00'183 6.5
2016-Apr-26 21:08N 40°59' E 013°15'916.4
2016-Apr-26 20:33N 40°54' E 013°26'1716.6
2016-Apr-26 19:34N 40°42' E 013°41'1615.6
2016-Apr-26 18:33N 40°38' E 014°01'1615.7
2016-Apr-26 17:33N 40°48' E 014°16'2 0.2
2016-Apr-26 06:33N 40°50' E 014°16'6 6.6
2016-Apr-26 05:34N 40°45' E 014°11'1514.8
2016-Apr-26 04:33N 40°35' E 013°56'1514.8
2016-Apr-26 03:33N 40°30' E 013°38'1716.0
2016-Apr-26 02:30N 40°32' E 013°16'  
2016-Apr-23 22:29N 41°16' E 003°29'1010.9
2016-Apr-23 21:33N 41°16' E 003°16'1110.6
2016-Apr-23 20:33N 41°16' E 003°02'1010.3
2016-Apr-23 19:33N 41°16' E 002°48'1110.4
2016-Apr-23 18:32N 41°16' E 002°34'18 8.8
2016-Apr-23 16:29N 41°19' E 002°10'3 2.7
2016-Apr-23 15:31N 41°22' E 002°11'0 0.0
2016-Apr-23 14:19N 41°22' E 002°11'0 0.0
2016-Apr-23 13:31N 41°22' E 002°11'0 0.0
2016-Apr-23 12:31N 41°22' E 002°11'0 0.0
2016-Apr-23 10:28N 41°22' E 002°11'0 0.0
2016-Apr-23 07:31N 41°22' E 002°11'0 0.0
2016-Apr-23 06:33N 41°22' E 002°11'3 3.2
2016-Apr-23 05:33N 41°18' E 002°10'1111.0
2016-Apr-23 04:33N 41°21' E 002°25'18916.5
2016-Apr-22 17:07N 43°04' E 005°59'4 7.9
2016-Apr-22 16:33N 43°06' E 005°54'0 0.0
2016-Apr-22 15:31N 43°06' E 005°54'0 0.0
2016-Apr-22 14:31N 43°06' E 005°54'0 0.0
2016-Apr-22 13:31N 43°06' E 005°54'0 0.0
2016-Apr-22 12:31N 43°06' E 005°54'0 0.0
2016-Apr-22 11:31N 43°06' E 005°54'0 0.0
2016-Apr-22 10:31N 43°06' E 005°54'0 0.0
2016-Apr-22 09:31N 43°06' E 005°54'0 0.0
2016-Apr-22 08:31N 43°06' E 005°54'0 0.0
2016-Apr-22 07:31N 43°06' E 005°54'3 2.9
2016-Apr-22 06:32N 43°05' E 005°57'9315.0
2016-Apr-22 00:21N 43°13' E 008°04'1316.9
2016-Apr-21 23:33N 43°16' E 008°22'1514.8
2016-Apr-21 22:34N 43°19' E 008°42'1514.5
2016-Apr-21 21:33N 43°23' E 009°01'1514.8
2016-Apr-21 20:33N 43°26' E 009°21'1515.2
2016-Apr-21 19:33N 43°30' E 009°41'1514.8
2016-Apr-21 18:33N 43°31' E 010°02'1212.1
2016-Apr-21 17:33N 43°34' E 010°18'1 0.8
2016-Apr-21 16:31N 43°34' E 010°18'0 0.0
2016-Apr-21 15:31N 43°34' E 010°18'0 0.0
2016-Apr-21 14:31N 43°34' E 010°18'0 0.0
2016-Apr-21 13:31N 43°34' E 010°18'0 0.0
2016-Apr-21 12:31N 43°34' E 010°18'0 0.0
2016-Apr-21 11:31N 43°34' E 010°18'0 0.0
2016-Apr-21 10:31N 43°34' E 010°18'0 0.0
2016-Apr-21 09:28N 43°34' E 010°18'0 0.0
2016-Apr-21 08:31N 43°34' E 010°18'0 0.0
2016-Apr-21 07:31N 43°34' E 010°18'0 0.0
2016-Apr-21 06:31N 43°34' E 010°18'0 0.5
2016-Apr-21 05:33N 43°34' E 010°18'7 7.2
2016-Apr-21 04:34N 43°28' E 010°12'1212.0
2016-Apr-21 03:34N 43°17' E 010°08'8 8.4
2016-Apr-21 02:34N 43°09' E 010°13'1514.5
2016-Apr-21 01:33N 42°56' E 010°05'  

Dump ship's entire track history